sensor_id;sensor_type;location;lat;lon;timestamp;pressure;altitude;pressure_sealevel;temperature;humidity
75699;BME280;64313;51.018;13.742;2023-01-13T00:00:21;98937.28;;;9.82;69.78
75699;BME280;64313;51.018;13.742;2023-01-13T00:02:47;98935.84;;;9.86;69.53
75699;BME280;64313;51.018;13.742;2023-01-13T00:05:12;98935.63;;;9.88;69.78
75699;BME280;64313;51.018;13.742;2023-01-13T00:07:38;98940.97;;;9.88;69.71
75699;BME280;64313;51.018;13.742;2023-01-13T00:10:08;98933.53;;;9.90;69.28
75699;BME280;64313;51.018;13.742;2023-01-13T00:12:37;98945.28;;;9.89;69.66
75699;BME280;64313;51.018;13.742;2023-01-13T00:15:03;98922.28;;;9.88;69.92
75699;BME280;64313;51.018;13.742;2023-01-13T00:17:28;98935.63;;;9.88;70.12
75699;BME280;64313;51.018;13.742;2023-01-13T00:19:54;98931.31;;;9.87;70.38
75699;BME280;64313;51.018;13.742;2023-01-13T00:22:20;98921.88;;;9.84;70.42
75699;BME280;64313;51.018;13.742;2023-01-13T00:24:45;98932.78;;;9.83;70.52
75699;BME280;64313;51.018;13.742;2023-01-13T00:27:11;98916.78;;;9.83;70.46
75699;BME280;64313;51.018;13.742;2023-01-13T00:29:36;98929.88;;;9.84;70.44
75699;BME280;64313;51.018;13.742;2023-01-13T00:32:01;98900.75;;;9.83;70.63
75699;BME280;64313;51.018;13.742;2023-01-13T00:34:27;98925.78;;;9.82;70.92
75699;BME280;64313;51.018;13.742;2023-01-13T00:36:52;98934.00;;;9.80;71.24
75699;BME280;64313;51.018;13.742;2023-01-13T00:39:17;98929.50;;;9.81;71.77
75699;BME280;64313;51.018;13.742;2023-01-13T00:41:43;98929.09;;;9.77;72.10
75699;BME280;64313;51.018;13.742;2023-01-13T00:44:26;98920.72;;;9.73;72.42
75699;BME280;64313;51.018;13.742;2023-01-13T00:46:52;98926.47;;;9.70;72.90
75699;BME280;64313;51.018;13.742;2023-01-13T00:49:17;98924.22;;;9.67;73.37
75699;BME280;64313;51.018;13.742;2023-01-13T00:51:42;98924.66;;;9.64;73.33
75699;BME280;64313;51.018;13.742;2023-01-13T00:54:08;98923.03;;;9.63;73.24
75699;BME280;64313;51.018;13.742;2023-01-13T00:56:33;98928.38;;;9.63;73.44
75699;BME280;64313;51.018;13.742;2023-01-13T00:59:00;98926.94;;;9.61;73.34
75699;BME280;64313;51.018;13.742;2023-01-13T01:01:26;98925.28;;;9.60;73.51
75699;BME280;64313;51.018;13.742;2023-01-13T01:03:52;98917.50;;;9.58;73.48
75699;BME280;64313;51.018;13.742;2023-01-13T01:06:25;98919.56;;;9.56;73.82
75699;BME280;64313;51.018;13.742;2023-01-13T01:08:52;98916.28;;;9.54;73.57
75699;BME280;64313;51.018;13.742;2023-01-13T01:11:27;98923.28;;;9.55;73.75
75699;BME280;64313;51.018;13.742;2023-01-13T01:13:54;98922.06;;;9.51;73.68
75699;BME280;64313;51.018;13.742;2023-01-13T01:16:22;98917.97;;;9.48;73.51
75699;BME280;64313;51.018;13.742;2023-01-13T01:18:49;98927.81;;;9.48;73.95
75699;BME280;64313;51.018;13.742;2023-01-13T01:21:15;98919.81;;;9.48;73.85
75699;BME280;64313;51.018;13.742;2023-01-13T01:23:41;98921.25;;;9.50;73.69
75699;BME280;64313;51.018;13.742;2023-01-13T01:26:11;98917.97;;;9.48;73.65
75699;BME280;64313;51.018;13.742;2023-01-13T01:28:37;98922.25;;;9.49;73.72
75699;BME280;64313;51.018;13.742;2023-01-13T01:31:11;98908.53;;;9.46;73.97
75699;BME280;64313;51.018;13.742;2023-01-13T01:33:36;98915.09;;;9.50;73.51
75699;BME280;64313;51.018;13.742;2023-01-13T01:36:02;98904.63;;;9.48;73.35
75699;BME280;64313;51.018;13.742;2023-01-13T01:38:28;98906.69;;;9.46;73.46
75699;BME280;64313;51.018;13.742;2023-01-13T01:40:56;98903.19;;;9.46;73.54
75699;BME280;64313;51.018;13.742;2023-01-13T01:43:22;98909.13;;;9.48;73.27
75699;BME280;64313;51.018;13.742;2023-01-13T01:46:05;98909.97;;;9.48;72.54
75699;BME280;64313;51.018;13.742;2023-01-13T01:48:37;98912.41;;;9.50;72.75
75699;BME280;64313;51.018;13.742;2023-01-13T01:51:08;98907.09;;;9.50;72.56
75699;BME280;64313;51.018;13.742;2023-01-13T01:53:40;98901.75;;;9.50;72.52
75699;BME280;64313;51.018;13.742;2023-01-13T01:56:08;98908.72;;;9.51;72.45
75699;BME280;64313;51.018;13.742;2023-01-13T01:58:39;98904.59;;;9.55;72.32
75699;BME280;64313;51.018;13.742;2023-01-13T02:01:07;98900.06;;;9.56;72.30
75699;BME280;64313;51.018;13.742;2023-01-13T02:03:35;98895.56;;;9.56;71.94
75699;BME280;64313;51.018;13.742;2023-01-13T02:06:02;98891.84;;;9.57;72.09
75699;BME280;64313;51.018;13.742;2023-01-13T02:08:27;98879.34;;;9.58;72.06
75699;BME280;64313;51.018;13.742;2023-01-13T02:10:53;98890.81;;;9.58;71.29
75699;BME280;64313;51.018;13.742;2023-01-13T02:13:20;98880.75;;;9.60;71.80
75699;BME280;64313;51.018;13.742;2023-01-13T02:15:57;98877.50;;;9.58;71.54
75699;BME280;64313;51.018;13.742;2023-01-13T02:21:18;98870.69;;;9.62;71.42
75699;BME280;64313;51.018;13.742;2023-01-13T02:24:04;98867.59;;;9.65;71.11
75699;BME280;64313;51.018;13.742;2023-01-13T02:27:28;98871.91;;;9.66;71.05
75699;BME280;64313;51.018;13.742;2023-01-13T02:29:59;98868.19;;;9.67;71.31
75699;BME280;64313;51.018;13.742;2023-01-13T02:35:34;98859.97;;;9.69;71.10
75699;BME280;64313;51.018;13.742;2023-01-13T02:38:01;98863.47;;;9.69;71.08
75699;BME280;64313;51.018;13.742;2023-01-13T02:40:38;98865.91;;;9.71;71.01
75699;BME280;64313;51.018;13.742;2023-01-13T02:43:11;98851.53;;;9.72;70.66
75699;BME280;64313;51.018;13.742;2023-01-13T02:46:38;98860.16;;;9.74;70.59
75699;BME280;64313;51.018;13.742;2023-01-13T02:49:08;98854.81;;;9.74;70.49
75699;BME280;64313;51.018;13.742;2023-01-13T02:51:37;98846.00;;;9.73;70.54
75699;BME280;64313;51.018;13.742;2023-01-13T02:54:08;98843.31;;;9.73;70.39
75699;BME280;64313;51.018;13.742;2023-01-13T02:56:39;98836.75;;;9.76;70.44
75699;BME280;64313;51.018;13.742;2023-01-13T02:59:06;98848.22;;;9.77;70.41
75699;BME280;64313;51.018;13.742;2023-01-13T03:01:33;98840.00;;;9.78;70.29
75699;BME280;64313;51.018;13.742;2023-01-13T03:03:58;98842.88;;;9.77;70.19
75699;BME280;64313;51.018;13.742;2023-01-13T03:09:18;98856.59;;;9.80;70.28
75699;BME280;64313;51.018;13.742;2023-01-13T03:12:06;98849.44;;;9.81;70.22
75699;BME280;64313;51.018;13.742;2023-01-13T03:14:40;98853.13;;;9.80;70.13
75699;BME280;64313;51.018;13.742;2023-01-13T03:17:43;98860.94;;;9.81;70.31
75699;BME280;64313;51.018;13.742;2023-01-13T03:22:33;98851.28;;;9.80;69.99
75699;BME280;64313;51.018;13.742;2023-01-13T03:25:09;98856.41;;;9.82;70.25
75699;BME280;64313;51.018;13.742;2023-01-13T03:30:21;98853.53;;;9.83;70.27
75699;BME280;64313;51.018;13.742;2023-01-13T03:32:50;98851.88;;;9.82;70.13
75699;BME280;64313;51.018;13.742;2023-01-13T03:35:21;98844.47;;;9.84;69.88
75699;BME280;64313;51.018;13.742;2023-01-13T03:37:54;98843.47;;;9.85;69.93
75699;BME280;64313;51.018;13.742;2023-01-13T03:40:27;98837.88;;;9.87;70.08
75699;BME280;64313;51.018;13.742;2023-01-13T03:42:59;98840.56;;;9.87;69.94
75699;BME280;64313;51.018;13.742;2023-01-13T03:45:47;98830.69;;;9.87;69.92
75699;BME280;64313;51.018;13.742;2023-01-13T03:48:16;98841.16;;;9.89;69.71
75699;BME280;64313;51.018;13.742;2023-01-13T03:50:49;98835.81;;;9.89;70.01
75699;BME280;64313;51.018;13.742;2023-01-13T03:53:26;98831.91;;;9.91;69.85
75699;BME280;64313;51.018;13.742;2023-01-13T03:56:16;98836.19;;;9.92;69.76
75699;BME280;64313;51.018;13.742;2023-01-13T03:58:47;98837.25;;;9.91;69.91
75699;BME280;64313;51.018;13.742;2023-01-13T04:01:53;98845.47;;;9.90;69.78
75699;BME280;64313;51.018;13.742;2023-01-13T04:04:36;98842.78;;;9.90;69.86
75699;BME280;64313;51.018;13.742;2023-01-13T04:07:12;98838.28;;;9.90;69.98
75699;BME280;64313;51.018;13.742;2023-01-13T04:09:50;98838.06;;;9.92;69.77
75699;BME280;64313;51.018;13.742;2023-01-13T04:14:53;98841.78;;;9.91;69.93
75699;BME280;64313;51.018;13.742;2023-01-13T04:17:19;98840.13;;;9.90;69.54
75699;BME280;64313;51.018;13.742;2023-01-13T04:19:46;98843.41;;;9.92;69.69
75699;BME280;64313;51.018;13.742;2023-01-13T04:22:11;98840.97;;;9.90;69.69
75699;BME280;64313;51.018;13.742;2023-01-13T04:24:36;98835.81;;;9.89;70.34
75699;BME280;64313;51.018;13.742;2023-01-13T04:27:02;98845.25;;;9.91;69.94
75699;BME280;64313;51.018;13.742;2023-01-13T04:29:28;98838.06;;;9.92;69.96
75699;BME280;64313;51.018;13.742;2023-01-13T04:31:53;98837.03;;;9.93;70.08
75699;BME280;64313;51.018;13.742;2023-01-13T04:34:18;98837.03;;;9.93;69.89
75699;BME280;64313;51.018;13.742;2023-01-13T04:36:44;98846.66;;;9.94;69.58
75699;BME280;64313;51.018;13.742;2023-01-13T04:39:09;98849.34;;;9.94;69.83
75699;BME280;64313;51.018;13.742;2023-01-13T04:41:34;98847.72;;;9.93;69.74
75699;BME280;64313;51.018;13.742;2023-01-13T04:44:20;98838.66;;;9.94;69.93
75699;BME280;64313;51.018;13.742;2023-01-13T04:46:45;98831.69;;;9.93;70.00
75699;BME280;64313;51.018;13.742;2023-01-13T04:49:11;98838.66;;;9.94;70.10
75699;BME280;64313;51.018;13.742;2023-01-13T04:51:36;98821.84;;;9.93;69.91
75699;BME280;64313;51.018;13.742;2023-01-13T04:54:01;98830.84;;;9.92;69.86
75699;BME280;64313;51.018;13.742;2023-01-13T04:56:26;98827.97;;;9.94;70.00
75699;BME280;64313;51.018;13.742;2023-01-13T04:58:52;98836.59;;;9.96;69.72
75699;BME280;64313;51.018;13.742;2023-01-13T05:01:17;98828.59;;;9.96;69.81
75699;BME280;64313;51.018;13.742;2023-01-13T05:03:42;98831.25;;;9.96;69.86
75699;BME280;64313;51.018;13.742;2023-01-13T05:06:08;98826.72;;;9.96;69.71
75699;BME280;64313;51.018;13.742;2023-01-13T05:08:33;98822.44;;;9.95;70.33
75699;BME280;64313;51.018;13.742;2023-01-13T05:10:59;98820.59;;;9.96;69.92
75699;BME280;64313;51.018;13.742;2023-01-13T05:13:25;98825.91;;;9.96;70.21
75699;BME280;64313;51.018;13.742;2023-01-13T05:16:09;98827.53;;;9.97;70.08
75699;BME280;64313;51.018;13.742;2023-01-13T05:18:53;98822.19;;;9.97;69.71
75699;BME280;64313;51.018;13.742;2023-01-13T05:21:19;98816.88;;;9.97;70.16
75699;BME280;64313;51.018;13.742;2023-01-13T05:24:03;98818.53;;;9.98;69.82
75699;BME280;64313;51.018;13.742;2023-01-13T05:26:47;98820.13;;;9.99;69.97
75699;BME280;64313;51.018;13.742;2023-01-13T05:29:12;98820.13;;;9.99;69.86
75699;BME280;64313;51.018;13.742;2023-01-13T05:31:37;98822.00;;;9.99;69.82
75699;BME280;64313;51.018;13.742;2023-01-13T05:34:02;98812.94;;;10.00;69.58
75699;BME280;64313;51.018;13.742;2023-01-13T05:36:28;98830.38;;;10.02;69.40
75699;BME280;64313;51.018;13.742;2023-01-13T05:38:53;98827.72;;;10.02;69.71
75699;BME280;64313;51.018;13.742;2023-01-13T05:41:18;98820.31;;;10.04;69.65
75699;BME280;64313;51.018;13.742;2023-01-13T05:44:02;98830.97;;;10.04;69.44
75699;BME280;64313;51.018;13.742;2023-01-13T05:46:28;98833.66;;;10.04;69.69
75699;BME280;64313;51.018;13.742;2023-01-13T05:48:53;98833.66;;;10.04;69.79
75699;BME280;64313;51.018;13.742;2023-01-13T05:51:18;98832.44;;;10.00;69.57
75699;BME280;64313;51.018;13.742;2023-01-13T05:53:46;98830.38;;;10.02;69.71
75699;BME280;64313;51.018;13.742;2023-01-13T05:56:11;98829.38;;;10.03;69.37
75699;BME280;64313;51.018;13.742;2023-01-13T05:58:37;98831.19;;;10.03;69.81
75699;BME280;64313;51.018;13.742;2023-01-13T06:01:05;98828.31;;;10.04;69.51
75699;BME280;64313;51.018;13.742;2023-01-13T06:03:30;98819.50;;;10.04;69.46
75699;BME280;64313;51.018;13.742;2023-01-13T06:05:56;98823.78;;;10.05;69.52
75699;BME280;64313;51.018;13.742;2023-01-13T06:08:24;98828.31;;;10.04;69.70
75699;BME280;64313;51.018;13.742;2023-01-13T06:10:49;98829.94;;;10.05;69.65
75699;BME280;64313;51.018;13.742;2023-01-13T06:13:14;98826.25;;;10.06;69.30
75699;BME280;64313;51.018;13.742;2023-01-13T06:15:40;98821.94;;;10.05;69.37
75699;BME280;64313;51.018;13.742;2023-01-13T06:18:05;98817.44;;;10.06;69.36
75699;BME280;64313;51.018;13.742;2023-01-13T06:20:31;98823.56;;;10.06;69.08
75699;BME280;64313;51.018;13.742;2023-01-13T06:22:56;98842.88;;;10.08;69.14
75699;BME280;64313;51.018;13.742;2023-01-13T06:25:43;98827.88;;;10.07;69.38
75699;BME280;64313;51.018;13.742;2023-01-13T06:28:10;98833.81;;;10.09;69.32
75699;BME280;64313;51.018;13.742;2023-01-13T06:30:40;98825.81;;;10.09;68.92
75699;BME280;64313;51.018;13.742;2023-01-13T06:33:11;98834.03;;;10.08;69.27
75699;BME280;64313;51.018;13.742;2023-01-13T06:35:38;98830.78;;;10.06;69.31
75699;BME280;64313;51.018;13.742;2023-01-13T06:38:08;98831.59;;;10.06;69.08
75699;BME280;64313;51.018;13.742;2023-01-13T06:40:35;98819.25;;;10.05;69.17
75699;BME280;64313;51.018;13.742;2023-01-13T06:43:01;98824.59;;;10.05;69.12
75699;BME280;64313;51.018;13.742;2023-01-13T06:45:39;98837.28;;;10.10;68.79
75699;BME280;64313;51.018;13.742;2023-01-13T06:48:04;98842.81;;;10.15;68.85
75699;BME280;64313;51.018;13.742;2023-01-13T06:50:30;98837.09;;;10.11;68.60
75699;BME280;64313;51.018;13.742;2023-01-13T06:52:55;98829.09;;;10.11;68.98
75699;BME280;64313;51.018;13.742;2023-01-13T06:55:21;98843.25;;;10.12;68.57
75699;BME280;64313;51.018;13.742;2023-01-13T06:57:48;98836.03;;;10.12;69.08
75699;BME280;64313;51.018;13.742;2023-01-13T07:00:14;98838.72;;;10.12;69.22
75699;BME280;64313;51.018;13.742;2023-01-13T07:02:39;98844.88;;;10.13;68.95
75699;BME280;64313;51.018;13.742;2023-01-13T07:05:05;98850.22;;;10.13;68.93
75699;BME280;64313;51.018;13.742;2023-01-13T07:07:30;98853.13;;;10.11;69.14
75699;BME280;64313;51.018;13.742;2023-01-13T07:09:56;98852.06;;;10.12;68.93
75699;BME280;64313;51.018;13.742;2023-01-13T07:12:22;98847.53;;;10.13;68.80
75699;BME280;64313;51.018;13.742;2023-01-13T07:14:47;98857.41;;;10.12;68.87
75699;BME280;64313;51.018;13.742;2023-01-13T07:17:31;98865.66;;;10.11;68.75
75699;BME280;64313;51.018;13.742;2023-01-13T07:19:56;98857.41;;;10.12;68.84
75699;BME280;64313;51.018;13.742;2023-01-13T07:22:22;98868.31;;;10.11;69.07
75699;BME280;64313;51.018;13.742;2023-01-13T07:24:48;98866.91;;;10.08;69.34
75699;BME280;64313;51.018;13.742;2023-01-13T07:27:14;98858.06;;;10.08;69.10
75699;BME280;64313;51.018;13.742;2023-01-13T07:29:39;98867.91;;;10.07;69.15
75699;BME280;64313;51.018;13.742;2023-01-13T07:32:05;98870.59;;;10.07;68.69
75699;BME280;64313;51.018;13.742;2023-01-13T07:34:31;98871.41;;;10.08;69.12
75699;BME280;64313;51.018;13.742;2023-01-13T07:36:57;98869.78;;;10.07;68.96
75699;BME280;64313;51.018;13.742;2023-01-13T07:39:22;98863.41;;;10.08;68.86
75699;BME280;64313;51.018;13.742;2023-01-13T07:41:47;98858.91;;;10.08;68.95
75699;BME280;64313;51.018;13.742;2023-01-13T07:44:31;98845.53;;;10.08;68.80
75699;BME280;64313;51.018;13.742;2023-01-13T07:46:57;98853.31;;;10.10;68.82
75699;BME280;64313;51.018;13.742;2023-01-13T07:49:22;98846.97;;;10.11;68.47
75699;BME280;64313;51.018;13.742;2023-01-13T07:51:47;98850.44;;;10.11;68.14
75699;BME280;64313;51.018;13.742;2023-01-13T07:54:12;98850.22;;;10.13;68.14
75699;BME280;64313;51.018;13.742;2023-01-13T07:56:38;98858.22;;;10.13;68.36
75699;BME280;64313;51.018;13.742;2023-01-13T07:59:03;98853.72;;;10.13;67.96
75699;BME280;64313;51.018;13.742;2023-01-13T08:01:28;98857.41;;;10.12;68.21
75699;BME280;64313;51.018;13.742;2023-01-13T08:03:55;98862.34;;;10.15;68.02
75699;BME280;64313;51.018;13.742;2023-01-13T08:06:22;98855.94;;;10.16;67.54
75699;BME280;64313;51.018;13.742;2023-01-13T08:08:48;98858.63;;;10.16;67.70
75699;BME280;64313;51.018;13.742;2023-01-13T08:11:13;98851.66;;;10.15;67.64
75699;BME280;64313;51.018;13.742;2023-01-13T08:13:38;98846.06;;;10.17;67.60
75699;BME280;64313;51.018;13.742;2023-01-13T08:16:07;98853.28;;;10.16;67.58
75699;BME280;64313;51.018;13.742;2023-01-13T08:18:35;98847.94;;;10.16;67.79
75699;BME280;64313;51.018;13.742;2023-01-13T08:21:07;98853.28;;;10.16;67.82
75699;BME280;64313;51.018;13.742;2023-01-13T08:23:32;98850.59;;;10.16;67.82
75699;BME280;64313;51.018;13.742;2023-01-13T08:25:59;98849.56;;;10.17;67.83
75699;BME280;64313;51.018;13.742;2023-01-13T08:28:26;98856.56;;;10.18;67.60
75699;BME280;64313;51.018;13.742;2023-01-13T08:30:51;98847.50;;;10.19;67.75
75699;BME280;64313;51.018;13.742;2023-01-13T08:33:18;98844.00;;;10.19;67.65
75699;BME280;64313;51.018;13.742;2023-01-13T08:35:43;98849.16;;;10.21;67.82
75699;BME280;64313;51.018;13.742;2023-01-13T08:38:09;98847.50;;;10.19;67.80
75699;BME280;64313;51.018;13.742;2023-01-13T08:40:35;98851.81;;;10.21;67.69
75699;BME280;64313;51.018;13.742;2023-01-13T08:43:00;98852.63;;;10.21;67.53
75699;BME280;64313;51.018;13.742;2023-01-13T08:45:26;98857.97;;;10.21;68.05
75699;BME280;64313;51.018;13.742;2023-01-13T08:47:51;98858.56;;;10.23;67.60
75699;BME280;64313;51.018;13.742;2023-01-13T08:50:17;98850.94;;;10.27;67.46
75699;BME280;64313;51.018;13.742;2023-01-13T08:52:43;98851.56;;;10.29;67.67
75699;BME280;64313;51.018;13.742;2023-01-13T08:55:09;98848.66;;;10.30;67.36
75699;BME280;64313;51.018;13.742;2023-01-13T08:57:34;98842.91;;;10.33;67.23
75699;BME280;64313;51.018;13.742;2023-01-13T09:00:00;98846.75;;;10.37;67.54
75699;BME280;64313;51.018;13.742;2023-01-13T09:02:25;98846.91;;;10.43;67.39
75699;BME280;64313;51.018;13.742;2023-01-13T09:04:51;98847.91;;;10.48;67.14
75699;BME280;64313;51.018;13.742;2023-01-13T09:07:17;98863.50;;;10.51;67.00
75699;BME280;64313;51.018;13.742;2023-01-13T09:09:42;98863.06;;;10.54;66.78
75699;BME280;64313;51.018;13.742;2023-01-13T09:12:13;98874.09;;;10.58;66.68
75699;BME280;64313;51.018;13.742;2023-01-13T09:14:58;98874.50;;;10.61;66.77
75699;BME280;64313;51.018;13.742;2023-01-13T09:17:23;98882.44;;;10.68;66.61
75699;BME280;64313;51.018;13.742;2023-01-13T09:19:49;98887.38;;;10.71;66.57
75699;BME280;64313;51.018;13.742;2023-01-13T09:22:16;98901.91;;;10.75;66.51
75699;BME280;64313;51.018;13.742;2023-01-13T09:24:42;98904.72;;;10.80;66.32
75699;BME280;64313;51.018;13.742;2023-01-13T09:27:09;98921.38;;;10.82;66.06
75699;BME280;64313;51.018;13.742;2023-01-13T09:29:35;98947.09;;;10.83;65.98
75699;BME280;64313;51.018;13.742;2023-01-13T09:32:00;98953.69;;;10.81;65.86
75699;BME280;64313;51.018;13.742;2023-01-13T09:34:25;98991.78;;;10.76;65.61
75699;BME280;64313;51.018;13.742;2023-01-13T09:37:09;98993.06;;;10.67;66.46
75699;BME280;64313;51.018;13.742;2023-01-13T09:39:35;98997.91;;;10.52;67.81
75699;BME280;64313;51.018;13.742;2023-01-13T09:42:13;98996.19;;;10.32;68.53
75699;BME280;64313;51.018;13.742;2023-01-13T09:45:05;99003.25;;;10.13;70.11
75699;BME280;64313;51.018;13.742;2023-01-13T09:47:47;98998.03;;;9.93;70.12
75699;BME280;64313;51.018;13.742;2023-01-13T09:50:36;98998.31;;;9.72;71.47
75699;BME280;64313;51.018;13.742;2023-01-13T09:53:10;98998.75;;;9.62;71.92
75699;BME280;64313;51.018;13.742;2023-01-13T09:55:37;99001.03;;;9.52;72.81
75699;BME280;64313;51.018;13.742;2023-01-13T09:58:11;99005.19;;;9.48;72.22
75699;BME280;64313;51.018;13.742;2023-01-13T10:00:42;99008.28;;;9.38;73.11
75699;BME280;64313;51.018;13.742;2023-01-13T10:03:31;99009.72;;;9.34;73.59
75699;BME280;64313;51.018;13.742;2023-01-13T10:06:23;99012.22;;;9.22;74.33
75699;BME280;64313;51.018;13.742;2023-01-13T10:08:52;99012.22;;;9.22;73.94
75699;BME280;64313;51.018;13.742;2023-01-13T10:11:22;99010.97;;;9.18;74.11
75699;BME280;64313;51.018;13.742;2023-01-13T10:14:14;99016.13;;;9.20;74.30
75699;BME280;64313;51.018;13.742;2023-01-13T10:16:49;99008.50;;;9.17;74.31
75699;BME280;64313;51.018;13.742;2023-01-13T10:20:15;99002.34;;;9.16;74.52
75699;BME280;64313;51.018;13.742;2023-01-13T10:22:35;99015.50;;;9.11;74.50
75699;BME280;64313;51.018;13.742;2023-01-13T10:28:13;98996.84;;;9.11;73.83
75699;BME280;64313;51.018;13.742;2023-01-13T10:30:41;99005.66;;;9.12;73.63
75699;BME280;64313;51.018;13.742;2023-01-13T10:33:13;98991.91;;;9.08;73.50
75699;BME280;64313;51.018;13.742;2023-01-13T10:35:57;98980.03;;;9.04;73.64
75699;BME280;64313;51.018;13.742;2023-01-13T10:38:35;98979.63;;;9.00;73.37
75699;BME280;64313;51.018;13.742;2023-01-13T10:43:36;98960.97;;;9.00;73.08
75699;BME280;64313;51.018;13.742;2023-01-13T10:46:13;98966.72;;;8.97;72.66
75699;BME280;64313;51.018;13.742;2023-01-13T10:48:52;98964.06;;;8.97;72.92
75699;BME280;64313;51.018;13.742;2023-01-13T10:51:23;98960.53;;;8.97;73.14
75699;BME280;64313;51.018;13.742;2023-01-13T10:53:50;98964.25;;;8.96;73.17
75699;BME280;64313;51.018;13.742;2023-01-13T10:56:17;98955.88;;;8.92;73.37
75699;BME280;64313;51.018;13.742;2023-01-13T10:58:43;98949.31;;;8.95;72.97
75699;BME280;64313;51.018;13.742;2023-01-13T11:01:17;98948.06;;;8.97;72.76
75699;BME280;64313;51.018;13.742;2023-01-13T11:03:43;98945.97;;;8.99;72.81
75699;BME280;64313;51.018;13.742;2023-01-13T11:06:22;98940.47;;;9.01;73.00
75699;BME280;64313;51.018;13.742;2023-01-13T11:08:50;98947.84;;;8.99;73.68
75699;BME280;64313;51.018;13.742;2023-01-13T11:11:27;98956.44;;;9.01;73.25
75699;BME280;64313;51.018;13.742;2023-01-13T11:13:55;98969.34;;;9.04;73.04
75699;BME280;64313;51.018;13.742;2023-01-13T11:16:45;98966.50;;;9.05;73.24
75699;BME280;64313;51.018;13.742;2023-01-13T11:19:16;98969.34;;;9.04;73.53
75699;BME280;64313;51.018;13.742;2023-01-13T11:21:47;98979.59;;;9.07;73.01
75699;BME280;64313;51.018;13.742;2023-01-13T11:27:36;98975.72;;;9.03;73.06
75699;BME280;64313;51.018;13.742;2023-01-13T11:35:28;98979.41;;;9.02;72.86
75699;BME280;64313;51.018;13.742;2023-01-13T11:40:48;98977.38;;;8.97;72.62
75699;BME280;64313;51.018;13.742;2023-01-13T11:43:31;98973.88;;;8.97;72.45
75699;BME280;64313;51.018;13.742;2023-01-13T11:45:59;98983.91;;;9.01;71.91
75699;BME280;64313;51.018;13.742;2023-01-13T11:48:30;98982.28;;;9.00;72.45
75699;BME280;64313;51.018;13.742;2023-01-13T11:56:12;98989.66;;;8.98;72.12
75699;BME280;64313;51.018;13.742;2023-01-13T11:58:51;98991.53;;;8.98;72.11
75699;BME280;64313;51.018;13.742;2023-01-13T12:06:33;98915.03;;;8.98;70.86
75699;BME280;64313;51.018;13.742;2023-01-13T12:09:14;98918.31;;;9.00;71.58
75699;BME280;64313;51.018;13.742;2023-01-13T12:14:42;98964.88;;;8.98;71.10
75699;BME280;64313;51.018;13.742;2023-01-13T12:17:23;98964.44;;;9.01;70.42
75699;BME280;64313;51.018;13.742;2023-01-13T12:19:50;98967.72;;;9.03;70.50
75699;BME280;64313;51.018;13.742;2023-01-13T12:22:23;98952.75;;;9.02;69.45
75699;BME280;64313;51.018;13.742;2023-01-13T12:27:37;98966.69;;;9.04;68.78
75699;BME280;64313;51.018;13.742;2023-01-13T12:30:17;98965.66;;;9.12;69.38
75699;BME280;64313;51.018;13.742;2023-01-13T12:32:46;98955.78;;;9.19;68.94
75699;BME280;64313;51.018;13.742;2023-01-13T12:35:24;98957.66;;;9.25;66.19
75699;BME280;64313;51.018;13.742;2023-01-13T12:38:05;98954.31;;;9.29;67.38
75699;BME280;64313;51.018;13.742;2023-01-13T12:40:55;98948.16;;;9.36;67.16
75699;BME280;64313;51.018;13.742;2023-01-13T12:43:24;98953.88;;;9.39;66.73
75699;BME280;64313;51.018;13.742;2023-01-13T12:51:23;98979.13;;;9.50;65.71
75699;BME280;64313;51.018;13.742;2023-01-13T12:53:50;98978.09;;;9.44;66.96
75699;BME280;64313;51.018;13.742;2023-01-13T12:56:26;98978.50;;;9.48;67.11
75699;BME280;64313;51.018;13.742;2023-01-13T13:01:42;98968.66;;;9.48;66.36
75699;BME280;64313;51.018;13.742;2023-01-13T13:04:13;98969.88;;;9.46;66.45
75699;BME280;64313;51.018;13.742;2023-01-13T13:06:45;98969.28;;;9.44;66.91
75699;BME280;64313;51.018;13.742;2023-01-13T13:09:27;98967.59;;;9.49;66.59
75699;BME280;64313;51.018;13.742;2023-01-13T13:11:54;98970.88;;;9.51;66.31
75699;BME280;64313;51.018;13.742;2023-01-13T13:17:04;98984.66;;;9.42;66.39
75699;BME280;64313;51.018;13.742;2023-01-13T13:19:42;98977.28;;;9.44;66.57
75699;BME280;64313;51.018;13.742;2023-01-13T13:24:36;98976.03;;;9.53;65.96
75699;BME280;64313;51.018;13.742;2023-01-13T13:27:39;98981.75;;;9.57;65.92
75699;BME280;64313;51.018;13.742;2023-01-13T13:33:09;98994.44;;;9.68;66.14
75699;BME280;64313;51.018;13.742;2023-01-13T13:38:24;98995.38;;;9.80;65.69
75699;BME280;64313;51.018;13.742;2023-01-13T13:41:19;98977.72;;;9.86;64.74
75699;BME280;64313;51.018;13.742;2023-01-13T13:44:20;98986.56;;;9.86;65.46
75699;BME280;64313;51.018;13.742;2023-01-13T13:47:05;98984.50;;;9.88;64.36
75699;BME280;64313;51.018;13.742;2023-01-13T13:49:37;98983.28;;;9.84;64.81
75699;BME280;64313;51.018;13.742;2023-01-13T13:52:15;98991.28;;;9.84;65.67
75699;BME280;64313;51.018;13.742;2023-01-13T13:54:44;98990.47;;;9.84;65.33
75699;BME280;64313;51.018;13.742;2023-01-13T13:57:20;98996.44;;;9.79;65.54
75699;BME280;64313;51.018;13.742;2023-01-13T13:59:52;98994.38;;;9.81;65.00
75699;BME280;64313;51.018;13.742;2023-01-13T14:02:26;98989.66;;;9.77;64.61
75699;BME280;64313;51.018;13.742;2023-01-13T14:05:06;98988.44;;;9.72;65.18
75699;BME280;64313;51.018;13.742;2023-01-13T14:07:41;98981.94;;;9.62;64.80
75699;BME280;64313;51.018;13.742;2023-01-13T14:10:15;98980.91;;;9.63;65.19
75699;BME280;64313;51.018;13.742;2023-01-13T14:12:41;98980.69;;;9.64;65.25
75699;BME280;64313;51.018;13.742;2023-01-13T14:15:33;98984.81;;;9.60;64.63
75699;BME280;64313;51.018;13.742;2023-01-13T14:18:02;98982.97;;;9.61;65.52
75699;BME280;64313;51.018;13.742;2023-01-13T14:20:28;98994.06;;;9.58;65.36
75699;BME280;64313;51.018;13.742;2023-01-13T14:22:54;98995.50;;;9.53;65.30
75699;BME280;64313;51.018;13.742;2023-01-13T14:25:36;98997.78;;;9.50;65.27